Time;durP1;ratioP1;P1;durP2;ratioP2;P2;SDS_P1;SDS_P2;PMS_P1;PMS_P2;Temp;Humidity;BMP_temperature;BMP_pressure;BME280_temperature;BME280_humidity;BME280_pressure;Samples;Min_cycle;Max_cycle;Signal;HPM_P1;HPM_P2
2021/01/07 00:00:07;;;;;;;11.73;6.72;;;3.80;91.40;;;;;;5017541;28;20041;-69
2021/01/07 00:02:32;;;;;;;11.68;5.90;;;3.80;91.50;;;;;;5028139;28;20033;-69
2021/01/07 00:04:58;;;;;;;8.63;5.95;;;3.80;91.50;;;;;;5014730;28;20022;-70
2021/01/07 00:07:23;;;;;;;9.00;6.13;;;3.70;91.50;;;;;;5014871;28;20421;-70
2021/01/07 00:09:49;;;;;;;10.35;5.95;;;3.80;91.60;;;;;;5012924;28;20516;-70
2021/01/07 00:12:15;;;;;;;9.32;5.57;;;3.70;91.60;;;;;;5010696;28;20023;-71
2021/01/07 00:14:40;;;;;;;15.30;6.35;;;3.70;91.60;;;;;;5025664;28;20075;-69
2021/01/07 00:17:06;;;;;;;10.10;7.00;;;3.60;91.60;;;;;;5022993;28;20044;-72
2021/01/07 00:19:31;;;;;;;10.60;6.00;;;3.50;91.80;;;;;;5016087;28;20044;-72
2021/01/07 00:21:57;;;;;;;9.40;6.53;;;3.40;92.00;;;;;;5015841;28;20036;-72
2021/01/07 00:24:22;;;;;;;12.45;6.95;;;3.40;92.10;;;;;;5015303;28;20056;-72
2021/01/07 00:26:48;;;;;;;10.30;6.60;;;3.30;92.10;;;;;;5016112;28;20026;-71
2021/01/07 00:29:14;;;;;;;9.20;6.07;;;3.30;92.10;;;;;;5014727;28;20038;-71
2021/01/07 00:31:39;;;;;;;10.80;6.25;;;3.20;92.10;;;;;;5016073;28;20068;-70
2021/01/07 00:34:05;;;;;;;9.38;6.15;;;3.20;92.30;;;;;;5015661;28;20026;-69
2021/01/07 00:36:30;;;;;;;11.25;5.90;;;3.10;92.60;;;;;;5015300;28;20025;-71
2021/01/07 00:38:56;;;;;;;10.00;5.80;;;3.10;92.40;;;;;;5015503;28;20041;-71
2021/01/07 00:41:21;;;;;;;10.23;6.43;;;3.10;92.40;;;;;;5015352;28;20026;-71
2021/01/07 00:43:48;;;;;;;12.15;6.00;;;3.10;92.50;;;;;;5014946;28;20029;-71
2021/01/07 00:46:17;;;;;;;10.55;6.40;;;3.00;92.50;;;;;;5015249;28;20022;-71
2021/01/07 00:48:43;;;;;;;9.35;6.10;;;3.00;92.60;;;;;;5015440;28;20061;-71
2021/01/07 00:51:09;;;;;;;10.38;6.05;;;3.00;92.60;;;;;;5014318;28;20030;-72
2021/01/07 00:53:35;;;;;;;9.23;6.30;;;3.00;92.70;;;;;;5014183;28;20022;-72
2021/01/07 00:56:01;;;;;;;10.85;6.60;;;3.00;92.60;;;;;;5015340;28;20022;-70
2021/01/07 00:58:26;;;;;;;9.95;6.10;;;3.10;92.70;;;;;;5014550;28;20033;-72
2021/01/07 01:00:52;;;;;;;10.05;6.18;;;3.10;92.70;;;;;;5014999;28;20491;-70
2021/01/07 01:03:17;;;;;;;11.40;6.35;;;3.20;92.70;;;;;;5013934;28;20076;-71
2021/01/07 01:05:43;;;;;;;9.25;6.28;;;3.30;92.70;;;;;;5014712;28;20018;-70
2021/01/07 01:08:08;;;;;;;8.75;6.05;;;3.30;92.60;;;;;;5014770;28;20034;-71
2021/01/07 01:10:34;;;;;;;8.32;6.28;;;3.30;92.60;;;;;;5015402;28;20026;-71
2021/01/07 01:13:00;;;;;;;8.15;5.90;;;3.30;92.60;;;;;;5014405;28;20026;-70
2021/01/07 01:15:26;;;;;;;8.27;6.32;;;3.30;92.60;;;;;;5014639;28;20084;-70
2021/01/07 01:17:51;;;;;;;9.45;6.30;;;3.40;92.60;;;;;;5014860;28;20436;-71
2021/01/07 01:20:17;;;;;;;8.73;6.07;;;3.40;92.60;;;;;;5014162;28;20470;-71
2021/01/07 01:22:44;;;;;;;9.20;5.85;;;3.40;92.50;;;;;;5015030;28;20481;-71
2021/01/07 01:25:11;;;;;;;7.72;6.28;;;3.50;92.60;;;;;;5014527;28;20107;-72
2021/01/07 01:27:42;;;;;;;10.02;5.72;;;3.50;92.50;;;;;;5014254;28;20026;-73
2021/01/07 01:30:10;;;;;;;9.27;6.32;;;3.50;92.50;;;;;;5014212;28;20070;-71
2021/01/07 01:32:37;;;;;;;10.23;6.50;;;3.50;92.50;;;;;;5013017;28;20025;-71
2021/01/07 01:35:06;;;;;;;10.23;6.22;;;3.50;92.50;;;;;;5014690;28;20112;-69
2021/01/07 01:37:34;;;;;;;11.32;7.38;;;3.50;92.50;;;;;;5014543;28;20474;-72
2021/01/07 01:40:00;;;;;;;8.43;6.68;;;3.50;92.50;;;;;;5012362;28;20049;-70
2021/01/07 01:42:26;;;;;;;10.45;7.22;;;3.50;92.50;;;;;;5014211;28;20104;-70
2021/01/07 01:44:53;;;;;;;8.70;7.00;;;3.50;92.60;;;;;;5014487;28;20048;-70
2021/01/07 01:47:19;;;;;;;9.70;6.68;;;3.40;92.60;;;;;;5012160;28;20486;-71
2021/01/07 01:49:54;;;;;;;9.65;7.40;;;3.40;92.60;;;;;;5014436;28;20113;-70
2021/01/07 01:52:21;;;;;;;8.43;6.28;;;3.50;92.60;;;;;;5014270;28;20022;-70
2021/01/07 01:54:47;;;;;;;9.15;6.28;;;3.50;92.60;;;;;;5013735;28;20033;-67
2021/01/07 01:57:14;;;;;;;10.93;7.55;;;3.60;92.60;;;;;;5013951;28;20026;-70
2021/01/07 01:59:40;;;;;;;8.93;6.93;;;3.50;92.60;;;;;;5007568;28;20434;-70
2021/01/07 02:02:18;;;;;;;12.93;7.80;;;3.60;92.60;;;;;;5012979;28;20455;-70
2021/01/07 02:04:48;;;;;;;11.10;7.28;;;3.60;92.50;;;;;;5013243;28;20034;-70
2021/01/07 02:07:19;;;;;;;9.93;7.20;;;3.70;92.40;;;;;;5011100;28;20113;-72
2021/01/07 02:09:45;;;;;;;11.30;8.02;;;3.70;92.40;;;;;;5012547;28;20033;-70
2021/01/07 02:12:12;;;;;;;11.07;7.47;;;3.70;92.40;;;;;;5011809;28;20030;-72
2021/01/07 02:14:45;;;;;;;10.40;8.13;;;3.70;92.40;;;;;;5013233;28;20100;-70
2021/01/07 02:17:12;;;;;;;10.00;7.50;;;3.70;92.40;;;;;;5013608;28;20022;-70
2021/01/07 02:19:38;;;;;;;8.93;7.68;;;3.70;92.30;;;;;;5012590;28;20113;-70
2021/01/07 02:22:04;;;;;;;10.57;8.25;;;3.80;92.40;;;;;;5012941;28;20096;-70
2021/01/07 02:24:30;;;;;;;11.63;9.57;;;3.80;92.30;;;;;;5013755;28;20528;-69
2021/01/07 02:27:06;;;;;;;12.30;9.40;;;3.80;92.30;;;;;;5013625;28;20022;-70
2021/01/07 02:29:32;;;;;;;12.27;9.88;;;3.80;92.60;;;;;;5013107;28;20061;-70
2021/01/07 02:31:57;;;;;;;13.38;9.32;;;3.80;92.30;;;;;;5012390;28;20127;-70
2021/01/07 02:34:23;;;;;;;10.90;8.85;;;3.80;92.40;;;;;;5013543;28;20478;-71
2021/01/07 02:36:49;;;;;;;12.75;9.82;;;3.90;92.30;;;;;;5013006;28;20470;-71
2021/01/07 02:39:14;;;;;;;12.45;9.77;;;3.90;92.30;;;;;;5012886;28;20030;-71
2021/01/07 02:41:40;;;;;;;13.60;9.45;;;4.00;92.30;;;;;;5013632;28;20454;-71
2021/01/07 02:44:07;;;;;;;12.23;9.80;;;3.90;92.20;;;;;;5012455;28;20026;-70
2021/01/07 02:46:33;;;;;;;15.45;10.00;;;3.90;92.20;;;;;;5013491;28;20026;-70
2021/01/07 02:48:58;;;;;;;14.57;9.40;;;3.90;92.30;;;;;;5013198;28;20041;-69
2021/01/07 02:51:24;;;;;;;11.82;9.00;;;3.90;92.30;;;;;;5012540;28;20442;-69
2021/01/07 02:53:50;;;;;;;11.35;9.50;;;4.00;92.30;;;;;;5011964;28;20025;-69
2021/01/07 02:56:15;;;;;;;10.63;9.50;;;4.00;92.20;;;;;;5011590;28;20083;-69
2021/01/07 02:58:41;;;;;;;14.18;9.50;;;3.90;92.20;;;;;;5012605;28;20022;-69
2021/01/07 03:01:06;;;;;;;12.82;8.95;;;4.00;92.20;;;;;;5012554;28;20042;-70
2021/01/07 03:03:32;;;;;;;14.10;9.57;;;4.00;92.20;;;;;;5011977;28;20030;-69
2021/01/07 03:05:57;;;;;;;10.75;8.50;;;4.00;92.20;;;;;;5012545;28;20022;-69
2021/01/07 03:08:23;;;;;;;11.65;9.25;;;4.00;92.20;;;;;;5012543;28;20052;-70
2021/01/07 03:10:49;;;;;;;12.95;9.23;;;4.00;92.20;;;;;;5012995;28;20026;-70
2021/01/07 03:13:14;;;;;;;11.85;9.05;;;4.10;92.20;;;;;;5012179;28;20022;-70
2021/01/07 03:15:40;;;;;;;11.85;9.13;;;4.10;92.20;;;;;;5012831;28;20374;-71
2021/01/07 03:18:05;;;;;;;13.25;9.00;;;4.10;92.10;;;;;;5012159;28;20492;-71
2021/01/07 03:20:30;;;;;;;11.93;8.70;;;4.20;92.10;;;;;;5013524;28;20513;-71
2021/01/07 03:22:56;;;;;;;11.73;8.85;;;4.20;92.00;;;;;;5013147;28;20113;-70
2021/01/07 03:25:22;;;;;;;10.82;8.35;;;4.20;92.00;;;;;;5010843;28;20018;-71
2021/01/07 03:27:47;;;;;;;11.43;8.80;;;4.20;92.00;;;;;;5012649;28;20042;-71
2021/01/07 03:30:13;;;;;;;10.60;8.65;;;4.20;92.00;;;;;;5012585;28;20037;-71
2021/01/07 03:32:39;;;;;;;12.20;9.23;;;4.20;92.00;;;;;;5012777;28;20030;-70
2021/01/07 03:35:06;;;;;;;9.88;8.07;;;4.20;92.00;;;;;;5012372;28;20030;-69
2021/01/07 03:37:32;;;;;;;11.98;9.10;;;4.30;92.00;;;;;;5012834;28;20030;-70
2021/01/07 03:39:58;;;;;;;8.98;7.53;;;4.30;91.90;;;;;;5011957;28;20033;-69
2021/01/07 03:42:23;;;;;;;11.27;8.38;;;4.20;91.90;;;;;;5012633;28;20077;-70
2021/01/07 03:44:49;;;;;;;10.90;8.27;;;4.20;92.00;;;;;;5012632;28;20061;-69
2021/01/07 03:47:14;;;;;;;9.45;7.65;;;4.30;92.00;;;;;;5011387;28;20049;-69
2021/01/07 03:49:40;;;;;;;14.57;8.10;;;4.30;91.90;;;;;;5012604;28;20022;-70
2021/01/07 03:52:05;;;;;;;8.93;7.75;;;4.20;91.80;;;;;;5012249;28;20030;-69
2021/01/07 03:54:31;;;;;;;10.07;7.10;;;4.20;91.80;;;;;;5012237;28;20033;-70
2021/01/07 03:56:57;;;;;;;9.27;7.10;;;4.20;91.80;;;;;;5012343;28;20487;-70
2021/01/07 03:59:22;;;;;;;10.45;7.90;;;4.10;91.70;;;;;;5012051;28;20040;-70
2021/01/07 04:01:48;;;;;;;9.77;7.63;;;4.10;91.70;;;;;;5011632;28;20036;-70
2021/01/07 04:04:14;;;;;;;9.00;7.63;;;4.00;91.70;;;;;;5012151;28;20030;-70
2021/01/07 04:06:39;;;;;;;10.57;8.70;;;4.10;91.80;;;;;;5011431;28;20053;-70
2021/01/07 04:09:05;;;;;;;10.10;8.48;;;4.10;91.80;;;;;;5011441;28;20042;-70
2021/01/07 04:11:31;;;;;;;9.70;8.27;;;4.10;91.70;;;;;;5012438;28;20473;-71
2021/01/07 04:13:57;;;;;;;9.30;8.30;;;4.10;91.70;;;;;;5012249;28;20084;-70
2021/01/07 04:16:23;;;;;;;10.15;7.65;;;4.10;91.70;;;;;;5011817;28;20030;-70
2021/01/07 04:18:48;;;;;;;9.88;7.43;;;4.00;91.70;;;;;;5010876;28;20036;-71
2021/01/07 04:21:18;;;;;;;8.40;6.93;;;4.00;91.80;;;;;;5011786;28;20018;-71
2021/01/07 04:23:44;;;;;;;8.02;7.07;;;4.00;91.90;;;;;;5011520;28;20108;-70
2021/01/07 04:26:09;;;;;;;8.23;6.90;;;4.00;91.80;;;;;;5012061;28;20153;-71
2021/01/07 04:28:35;;;;;;;9.93;6.75;;;4.00;91.80;;;;;;5011541;28;20079;-70
2021/01/07 04:31:00;;;;;;;7.38;6.55;;;4.00;91.90;;;;;;5012219;28;20112;-72
2021/01/07 04:33:26;;;;;;;11.48;7.43;;;4.10;91.90;;;;;;5012209;28;20037;-71
2021/01/07 04:35:52;;;;;;;8.15;7.35;;;4.10;91.80;;;;;;5011315;28;20061;-71
2021/01/07 04:38:17;;;;;;;10.43;8.07;;;4.10;91.90;;;;;;5015628;28;20104;-71
2021/01/07 04:40:43;;;;;;;10.07;7.80;;;4.10;92.00;;;;;;5015672;28;20021;-71
2021/01/07 04:43:08;;;;;;;13.02;9.23;;;4.10;91.90;;;;;;5014559;28;20030;-71
2021/01/07 04:45:34;;;;;;;13.43;9.30;;;4.10;92.00;;;;;;5016084;28;20121;-70
2021/01/07 04:48:00;;;;;;;12.38;9.77;;;4.00;91.90;;;;;;5017704;28;20072;-70
2021/01/07 04:50:26;;;;;;;11.27;8.75;;;4.00;92.00;;;;;;5016439;28;20443;-70
2021/01/07 04:52:52;;;;;;;13.32;9.85;;;3.90;92.10;;;;;;5013896;28;20057;-70
2021/01/07 04:55:17;;;;;;;23.65;12.65;;;3.90;92.30;;;;;;5015095;28;20060;-70
2021/01/07 04:57:43;;;;;;;12.80;10.27;;;3.90;92.30;;;;;;5014675;28;20030;-70
2021/01/07 05:00:11;;;;;;;13.90;11.18;;;4.00;92.30;;;;;;5014533;28;20124;-70
2021/01/07 05:02:38;;;;;;;15.20;11.35;;;4.00;92.30;;;;;;5015308;28;20113;-70
2021/01/07 05:05:05;;;;;;;18.63;13.55;;;4.00;92.30;;;;;;5013041;28;20026;-70
2021/01/07 05:07:31;;;;;;;14.13;12.02;;;4.00;92.30;;;;;;5015456;28;20033;-70
2021/01/07 05:10:02;;;;;;;18.27;13.02;;;4.00;92.30;;;;;;5015016;28;20433;-70
2021/01/07 05:12:28;;;;;;;15.37;12.40;;;4.00;92.40;;;;;;5013427;28;20029;-70
2021/01/07 05:14:53;;;;;;;17.70;13.05;;;4.00;92.40;;;;;;5015007;28;20626;-70
2021/01/07 05:17:19;;;;;;;17.52;12.18;;;4.00;92.50;;;;;;5014783;28;20108;-70
2021/01/07 05:19:44;;;;;;;16.50;13.57;;;4.00;92.40;;;;;;5013084;28;20110;-70
2021/01/07 05:22:10;;;;;;;15.50;12.20;;;4.00;92.50;;;;;;5014922;28;20022;-70
2021/01/07 05:24:37;;;;;;;15.30;12.00;;;4.00;92.50;;;;;;5014685;28;20040;-71
2021/01/07 05:27:15;;;;;;;19.55;13.48;;;4.00;92.50;;;;;;5013526;28;20022;-71
2021/01/07 05:29:41;;;;;;;14.35;12.10;;;4.00;92.50;;;;;;5015011;28;20394;-71
2021/01/07 05:32:08;;;;;;;14.55;12.23;;;4.00;92.50;;;;;;5012659;28;20021;-71
2021/01/07 05:34:50;;;;;;;16.10;11.88;;;3.90;92.50;;;;;;5013574;28;20597;-71
2021/01/07 05:37:17;;;;;;;13.68;10.95;;;4.00;92.50;;;;;;5014998;28;20026;-70
2021/01/07 05:39:45;;;;;;;12.75;10.75;;;4.00;92.50;;;;;;5014215;28;20105;-73
2021/01/07 05:42:11;;;;;;;12.35;10.13;;;4.10;92.50;;;;;;5014309;28;20423;-70
2021/01/07 05:44:41;;;;;;;12.43;9.80;;;4.00;92.50;;;;;;5014760;28;20034;-72
2021/01/07 05:47:07;;;;;;;10.32;9.23;;;4.00;92.50;;;;;;5012701;28;20160;-71
2021/01/07 05:49:37;;;;;;;11.63;9.45;;;4.00;92.50;;;;;;5014522;28;20113;-72
2021/01/07 05:52:06;;;;;;;11.88;9.82;;;3.90;92.50;;;;;;5013157;28;20022;-71
2021/01/07 05:54:32;;;;;;;10.60;9.35;;;3.90;92.60;;;;;;5012409;28;20367;-70
2021/01/07 05:57:03;;;;;;;10.75;8.70;;;4.00;92.70;;;;;;5014267;28;20113;-74
2021/01/07 05:59:32;;;;;;;9.63;7.65;;;4.00;92.70;;;;;;5014192;28;20400;-73
2021/01/07 06:02:03;;;;;;;9.85;8.60;;;4.10;92.70;;;;;;5013569;28;20109;-72
2021/01/07 06:04:32;;;;;;;9.82;8.77;;;4.10;92.70;;;;;;5014139;28;20025;-70
2021/01/07 06:06:58;;;;;;;18.75;8.90;;;4.10;92.60;;;;;;5013252;28;20030;-72
2021/01/07 06:09:29;;;;;;;10.65;8.10;;;4.10;92.50;;;;;;5013918;28;20049;-70
2021/01/07 06:11:57;;;;;;;7.85;6.60;;;4.10;92.60;;;;;;5014013;28;20382;-71
2021/01/07 06:14:23;;;;;;;11.38;8.30;;;4.10;92.50;;;;;;5013082;28;20022;-70
2021/01/07 06:16:48;;;;;;;9.88;8.52;;;4.10;92.50;;;;;;5013964;28;20025;-71
2021/01/07 06:19:36;;;;;;;9.70;8.43;;;4.10;92.60;;;;;;5013751;28;20087;-70
2021/01/07 06:22:08;;;;;;;11.55;7.80;;;4.20;92.60;;;;;;5012960;28;20089;-72
2021/01/07 06:24:38;;;;;;;;;;;4.20;92.80;;;;;;5014318;28;20020;-70
2021/01/07 06:27:23;;;;;;;9.13;7.35;;;4.20;92.50;;;;;;5013557;28;19928;-70
2021/01/07 06:29:53;;;;;;;9.07;8.10;;;4.20;92.40;;;;;;5012830;28;20033;-69
2021/01/07 06:32:19;;;;;;;11.57;8.70;;;4.10;92.50;;;;;;5013246;28;20029;-69
2021/01/07 06:34:46;;;;;;;9.63;8.00;;;4.20;92.60;;;;;;5013753;28;20021;-70
2021/01/07 06:37:11;;;;;;;9.98;8.18;;;4.20;92.60;;;;;;5012709;28;20018;-69
2021/01/07 06:39:44;;;;;;;13.43;9.23;;;4.20;92.60;;;;;;5013884;28;20085;-69
2021/01/07 06:42:18;;;;;;;15.95;9.80;;;4.20;92.60;;;;;;5012762;28;20382;-70
2021/01/07 06:44:45;;;;;;;12.70;9.25;;;4.20;92.60;;;;;;5013386;28;20022;-70
2021/01/07 06:47:20;;;;;;;10.85;9.07;;;4.20;92.60;;;;;;5013086;28;20030;-72
2021/01/07 06:49:48;;;;;;;10.07;8.30;;;4.10;92.60;;;;;;5012586;28;20482;-70
2021/01/07 06:52:14;;;;;;;12.70;8.57;;;4.10;92.60;;;;;;5008110;28;20018;-69
2021/01/07 06:54:45;;;;;;;10.15;8.13;;;4.10;92.70;;;;;;4999005;28;20485;-69
2021/01/07 06:57:15;;;;;;;11.32;8.52;;;4.10;92.70;;;;;;5008889;28;20033;-69
2021/01/07 07:00:00;;;;;;;11.40;9.13;;;4.10;92.70;;;;;;5011625;28;20049;-69
2021/01/07 07:02:26;;;;;;;11.32;8.55;;;4.10;92.80;;;;;;5011845;28;20030;-68
2021/01/07 07:05:05;;;;;;;10.13;9.00;;;4.10;92.80;;;;;;5010010;28;20026;-71
2021/01/07 07:07:37;;;;;;;12.20;8.98;;;4.20;92.80;;;;;;5009701;28;20022;-70
2021/01/07 07:10:18;;;;;;;13.65;9.20;;;4.20;92.70;;;;;;5015450;28;20025;-70
2021/01/07 07:12:50;;;;;;;10.60;8.90;;;4.20;92.70;;;;;;5031466;28;20095;-70
2021/01/07 07:15:17;;;;;;;10.32;8.93;;;4.30;92.70;;;;;;5032525;28;20028;-70
2021/01/07 07:17:47;;;;;;;91.68;12.70;;;4.20;92.70;;;;;;5030680;28;20476;-70
2021/01/07 07:20:19;;;;;;;14.77;9.10;;;4.20;92.70;;;;;;5032393;28;20081;-72
2021/01/07 07:22:46;;;;;;;17.65;8.50;;;4.20;92.90;;;;;;5016329;28;20038;-71
2021/01/07 07:25:13;;;;;;;19.92;8.13;;;4.20;93.00;;;;;;5010902;28;20545;-71
2021/01/07 07:27:49;;;;;;;8.98;7.05;;;4.20;93.10;;;;;;5009909;28;20057;-71
2021/01/07 07:30:29;;;;;;;10.30;8.77;;;4.20;93.10;;;;;;5010912;28;20084;-71
2021/01/07 07:32:56;;;;;;;10.80;9.50;;;4.20;93.10;;;;;;5010695;28;20540;-72
2021/01/07 07:35:24;;;;;;;10.95;9.45;;;4.30;93.10;;;;;;4992430;28;20019;-71
2021/01/07 07:37:50;;;;;;;8.75;7.85;;;4.30;93.10;;;;;;4993164;28;20110;-72
2021/01/07 07:40:36;;;;;;;10.18;7.60;;;4.40;93.00;;;;;;5001660;28;20029;-74
2021/01/07 07:43:03;;;;;;;12.73;11.40;;;4.40;93.00;;;;;;5011124;28;20069;-72
2021/01/07 07:45:30;;;;;;;15.85;12.82;;;4.50;92.90;;;;;;5011926;28;20033;-70
2021/01/07 07:47:56;;;;;;;15.32;13.73;;;4.50;92.90;;;;;;5007897;28;20054;-70
2021/01/07 07:50:30;;;;;;;10.60;9.50;;;4.60;92.90;;;;;;4992906;28;20049;-74
2021/01/07 07:53:15;;;;;;;9.38;7.53;;;4.60;92.90;;;;;;5005973;28;20441;-73
2021/01/07 07:55:43;;;;;;;9.38;7.80;;;4.60;92.70;;;;;;5012517;28;20057;-70
2021/01/07 07:58:13;;;;;;;16.23;10.15;;;4.60;92.70;;;;;;5012012;28;20033;-68
2021/01/07 08:00:52;;;;;;;8.93;7.82;;;4.60;92.60;;;;;;5011269;28;20050;-72
2021/01/07 08:03:26;;;;;;;10.13;7.65;;;4.70;92.60;;;;;;5012118;28;20050;-75
2021/01/07 08:05:52;;;;;;;10.52;7.28;;;4.70;92.60;;;;;;5009339;28;20080;-75
2021/01/07 08:08:26;;;;;;;9.73;6.70;;;4.70;92.60;;;;;;5010043;28;20049;-75
2021/01/07 08:10:53;;;;;;;7.47;6.28;;;4.70;92.50;;;;;;5013173;28;20032;-74
2021/01/07 08:13:20;;;;;;;9.77;7.30;;;4.70;92.60;;;;;;5014148;28;20478;-70
2021/01/07 08:15:47;;;;;;;290.17;18.23;;;4.70;92.60;;;;;;5017998;28;20418;-74
2021/01/07 08:18:19;;;;;;;76.75;10.63;;;4.70;92.50;;;;;;5035168;28;20040;-70
2021/01/07 08:20:46;;;;;;;43.15;8.38;;;4.70;92.50;;;;;;5035197;28;20430;-67
2021/01/07 08:23:13;;;;;;;8.95;7.38;;;4.80;92.80;;;;;;5034055;28;20028;-71
2021/01/07 08:25:39;;;;;;;7.43;6.65;;;4.80;92.40;;;;;;5035575;28;20079;-70
2021/01/07 08:28:41;;;;;;;8.15;7.00;;;4.80;92.30;;;;;;4995863;28;20047;-71
2021/01/07 08:31:10;;;;;;;8.87;7.43;;;4.80;92.30;;;;;;4993353;28;20113;-71
2021/01/07 08:33:36;;;;;;;9.13;7.68;;;4.90;92.30;;;;;;4996068;28;20919;-68
2021/01/07 08:36:08;;;;;;;9.98;7.13;;;4.90;92.30;;;;;;4995075;28;20423;-68
2021/01/07 08:38:34;;;;;;;8.05;7.25;;;5.00;92.20;;;;;;4995849;28;20023;-69
2021/01/07 08:41:12;;;;;;;8.95;6.82;;;5.00;92.20;;;;;;5011937;28;20500;-69
2021/01/07 08:43:38;;;;;;;7.80;6.80;;;5.10;92.10;;;;;;5014612;28;20026;-68
2021/01/07 08:46:10;;;;;;;7.93;6.88;;;5.00;92.00;;;;;;5014061;28;20415;-68
2021/01/07 08:48:36;;;;;;;8.18;7.35;;;5.10;91.90;;;;;;5014394;28;20064;-66
2021/01/07 08:51:14;;;;;;;9.70;6.57;;;5.00;91.90;;;;;;5014014;28;20037;-67
2021/01/07 08:53:49;;;;;;;9.98;7.68;;;5.00;92.00;;;;;;5014176;28;20055;-69
2021/01/07 08:56:34;;;;;;;8.90;7.38;;;5.00;91.90;;;;;;5014186;28;20105;-67
2021/01/07 08:59:36;;;;;;;9.50;8.00;;;5.00;91.90;;;;;;5012383;28;20025;-67
2021/01/07 09:02:02;;;;;;;10.50;8.38;;;5.00;92.00;;;;;;5010356;28;20087;-68
2021/01/07 09:04:35;;;;;;;12.18;9.48;;;5.00;92.00;;;;;;4994534;28;20023;-69
2021/01/07 09:07:09;;;;;;;8.45;7.63;;;5.00;91.90;;;;;;4995282;28;20486;-68
2021/01/07 09:09:49;;;;;;;21.55;8.63;;;5.00;91.90;;;;;;4995296;28;20034;-70
2021/01/07 09:12:28;;;;;;;10.32;7.88;;;5.10;92.10;;;;;;5007482;28;20064;-81
2021/01/07 09:15:07;;;;;;;7.78;6.97;;;5.20;92.20;;;;;;5014838;28;20030;-76
2021/01/07 09:17:46;;;;;;;9.57;7.85;;;5.20;92.00;;;;;;5013531;28;20116;-78
2021/01/07 09:20:13;;;;;;;8.98;7.78;;;5.20;91.80;;;;;;5009924;28;20030;-76
2021/01/07 09:22:40;;;;;;;9.40;8.40;;;5.30;91.80;;;;;;4994156;28;20089;-77
2021/01/07 09:25:08;;;;;;;7.95;7.15;;;5.20;91.80;;;;;;5018102;28;20492;-79
2021/01/07 09:27:34;;;;;;;8.32;7.50;;;5.20;91.80;;;;;;5026335;28;20351;-74
2021/01/07 09:29:59;;;;;;;8.25;7.45;;;5.20;91.80;;;;;;5032809;28;20037;-73
2021/01/07 09:32:25;;;;;;;398.48;26.60;;;5.20;91.90;;;;;;5032161;28;20026;-76
2021/01/07 09:34:51;;;;;;;10.15;7.95;;;5.30;92.00;;;;;;5032834;28;20021;-74
2021/01/07 09:37:21;;;;;;;8.15;7.00;;;5.30;91.90;;;;;;5018428;28;20033;-74
2021/01/07 09:39:49;;;;;;;7.25;6.53;;;5.40;91.80;;;;;;5011968;28;20478;-76
2021/01/07 09:42:17;;;;;;;7.53;6.70;;;5.40;91.70;;;;;;5014191;28;20104;-75
2021/01/07 09:44:43;;;;;;;9.30;6.43;;;5.40;91.70;;;;;;5011568;28;20064;-72
2021/01/07 09:47:08;;;;;;;7.40;5.93;;;5.40;91.70;;;;;;5006528;28;20022;-76
2021/01/07 09:49:35;;;;;;;6.00;5.03;;;5.40;91.70;;;;;;4993504;28;20130;-73
2021/01/07 09:52:01;;;;;;;1232.28;74.18;;;5.30;91.60;;;;;;4993613;28;20029;-73
2021/01/07 09:54:27;;;;;;;6.30;5.60;;;5.30;91.80;;;;;;4993384;28;20456;-75
2021/01/07 09:56:57;;;;;;;9.02;6.28;;;5.30;91.90;;;;;;4997646;28;20030;-76
2021/01/07 09:59:24;;;;;;;6.38;5.18;;;5.40;91.90;;;;;;5011804;28;20030;-77
2021/01/07 10:02:04;;;;;;;6.97;5.40;;;5.50;91.80;;;;;;5012649;28;20107;-72
2021/01/07 10:04:30;;;;;;;7.05;5.45;;;5.60;91.60;;;;;;5013961;28;20072;-77
2021/01/07 10:06:56;;;;;;;5.70;5.20;;;5.60;91.50;;;;;;5012397;28;20080;-78
2021/01/07 10:09:22;;;;;;;5.82;5.25;;;5.60;91.50;;;;;;5011805;28;20477;-78
2021/01/07 10:11:51;;;;;;;5.38;4.88;;;5.70;91.50;;;;;;5012305;28;20105;-79
2021/01/07 10:14:18;;;;;;;5.93;5.32;;;5.60;91.50;;;;;;5007762;28;20473;-72
2021/01/07 10:16:52;;;;;;;7.60;5.28;;;5.70;91.70;;;;;;5008847;28;20054;-75
2021/01/07 10:19:20;;;;;;;5.43;4.70;;;5.70;91.60;;;;;;5020733;28;20102;-79
2021/01/07 10:21:59;;;;;;;5.00;4.45;;;5.80;91.50;;;;;;5031761;28;20036;-70
2021/01/07 10:24:25;;;;;;;5.43;4.85;;;5.80;91.40;;;;;;5032088;28;20091;-80
2021/01/07 10:26:56;;;;;;;4.80;4.30;;;5.90;91.40;;;;;;5031937;28;20022;-69
2021/01/07 10:29:22;;;;;;;5.90;4.35;;;5.90;91.30;;;;;;5032812;28;20029;-68
2021/01/07 10:31:48;;;;;;;6.70;5.20;;;5.90;91.20;;;;;;5015404;28;20018;-70
2021/01/07 10:34:14;;;;;;;7.35;4.45;;;5.90;91.30;;;;;;5011722;28;20415;-71
2021/01/07 10:36:41;;;;;;;4.82;4.35;;;5.90;91.30;;;;;;5013288;28;20026;-71
2021/01/07 10:39:07;;;;;;;5.57;5.05;;;6.00;91.20;;;;;;5012672;28;20056;-74
2021/01/07 10:41:35;;;;;;;5.40;4.90;;;6.00;91.20;;;;;;5011909;28;20026;-74
2021/01/07 10:44:04;;;;;;;5.18;4.68;;;6.00;91.30;;;;;;5011894;28;20117;-73
2021/01/07 10:46:35;;;;;;;5.05;4.40;;;6.10;91.40;;;;;;5013119;28;20018;-73
2021/01/07 10:49:02;;;;;;;4.57;4.07;;;6.10;91.20;;;;;;5012614;28;20057;-73
2021/01/07 10:51:40;;;;;;;13.60;5.22;;;6.00;91.00;;;;;;5011183;28;20054;-77
2021/01/07 10:54:36;;;;;;;5.80;5.05;;;6.00;91.10;;;;;;5012566;28;20489;-71
2021/01/07 10:57:23;;;;;;;4.78;4.38;;;6.00;91.30;;;;;;4989073;28;20030;-78
2021/01/07 11:00:06;;;;;;;5.95;4.25;;;6.10;91.30;;;;;;5013439;28;20548;-74
2021/01/07 11:03:11;;;;;;;5.30;4.68;;;6.00;91.10;;;;;;5011205;28;20072;-76
2021/01/07 11:05:41;;;;;;;5.25;4.38;;;6.00;91.30;;;;;;4984842;28;20128;-75
2021/01/07 11:08:16;;;;;;;5.93;4.55;;;6.00;91.40;;;;;;5026597;28;20025;-72
2021/01/07 11:11:06;;;;;;;18.90;5.40;;;6.00;91.30;;;;;;5019207;28;20109;-75
2021/01/07 11:13:39;;;;;;;5.15;4.65;;;6.00;91.40;;;;;;5011021;28;20121;-69
2021/01/07 11:16:10;;;;;;;7.22;3.80;;;6.10;91.60;;;;;;5012005;28;20041;-74
2021/01/07 11:18:42;;;;;;;5.80;3.50;;;6.10;91.70;;;;;;5012822;28;20065;-71
2021/01/07 11:21:13;;;;;;;5.10;4.40;;;6.10;91.40;;;;;;5012327;28;20110;-72
2021/01/07 11:23:39;;;;;;;6.57;4.10;;;6.10;91.50;;;;;;5012163;28;20064;-74
2021/01/07 11:26:05;;;;;;;6.20;3.58;;;6.10;91.40;;;;;;5009669;28;20285;-73
2021/01/07 11:28:31;;;;;;;3.65;3.10;;;6.10;91.40;;;;;;4992741;28;20048;-71
2021/01/07 11:30:57;;;;;;;3.33;3.03;;;6.00;91.30;;;;;;5006643;28;20077;-70
2021/01/07 11:33:24;;;;;;;2.92;2.63;;;6.00;91.50;;;;;;5010634;28;20068;-74
2021/01/07 11:35:49;;;;;;;2.70;2.50;;;6.00;91.40;;;;;;5010007;28;20026;-74
2021/01/07 11:38:25;;;;;;;3.63;3.20;;;6.00;91.40;;;;;;5029914;28;20030;-72
2021/01/07 11:41:06;;;;;;;2.95;2.63;;;6.00;91.40;;;;;;5013529;28;20432;-74
2021/01/07 11:44:09;;;;;;;3.65;3.00;;;6.00;91.30;;;;;;4996939;28;20113;-72
2021/01/07 11:46:37;;;;;;;4.18;2.83;;;6.00;91.40;;;;;;5006526;28;20076;-73
2021/01/07 11:49:04;;;;;;;4.88;2.80;;;6.00;91.30;;;;;;5001950;28;20049;-68
2021/01/07 11:51:30;;;;;;;2.72;2.50;;;6.00;91.50;;;;;;4996105;28;20080;-73
2021/01/07 11:54:01;;;;;;;3.03;2.78;;;6.00;91.50;;;;;;4996510;28;20023;-74
2021/01/07 11:56:27;;;;;;;3.10;2.50;;;6.10;91.50;;;;;;5004595;28;20014;-76
2021/01/07 11:58:53;;;;;;;2.80;2.50;;;6.10;91.30;;;;;;5015715;28;20074;-72
2021/01/07 12:01:20;;;;;;;2.67;2.47;;;6.10;91.20;;;;;;5015690;28;20052;-75
2021/01/07 12:03:46;;;;;;;2.80;2.60;;;6.10;91.20;;;;;;5010960;28;20030;-76
2021/01/07 12:06:16;;;;;;;2.40;2.20;;;6.10;91.30;;;;;;4999111;28;20018;-73
2021/01/07 12:08:52;;;;;;;2.85;2.40;;;6.20;91.30;;;;;;4997372;28;20121;-75
2021/01/07 12:11:29;;;;;;;2.40;2.20;;;6.10;91.30;;;;;;4996078;28;20019;-75
2021/01/07 12:14:06;;;;;;;2.10;1.90;;;6.10;91.30;;;;;;4995941;28;20022;-77
2021/01/07 12:16:41;;;;;;;2.28;2.03;;;6.10;91.30;;;;;;4996663;28;20076;-77
2021/01/07 12:19:08;;;;;;;2.30;2.05;;;6.10;91.30;;;;;;4999615;28;20030;-75
2021/01/07 12:21:34;;;;;;;67.32;4.32;;;6.00;91.30;;;;;;5014289;28;20018;-76
2021/01/07 12:24:01;;;;;;;2.30;1.95;;;6.00;91.30;;;;;;5016077;28;20389;-75
2021/01/07 12:26:27;;;;;;;2.00;1.88;;;5.90;91.30;;;;;;5014440;28;20034;-75
2021/01/07 12:28:54;;;;;;;1.60;1.50;;;6.00;91.40;;;;;;5010993;28;20026;-74
2021/01/07 12:31:21;;;;;;;1.80;1.70;;;5.90;91.50;;;;;;4997017;28;20434;-75
2021/01/07 12:33:57;;;;;;;2.25;1.95;;;5.90;91.60;;;;;;4995478;28;20022;-75
2021/01/07 12:36:39;;;;;;;1.90;1.80;;;6.00;91.60;;;;;;5005184;28;20336;-74
2021/01/07 12:39:20;;;;;;;1.60;1.50;;;6.00;91.50;;;;;;4995853;28;20414;-76
2021/01/07 12:41:52;;;;;;;1.85;1.52;;;6.10;91.40;;;;;;4994788;28;20054;-73
2021/01/07 12:44:21;;;;;;;2.13;1.60;;;6.10;91.40;;;;;;5003961;28;20056;-74
2021/01/07 12:46:50;;;;;;;2.42;1.80;;;6.10;91.50;;;;;;5015027;28;20029;-75
2021/01/07 12:49:16;;;;;;;2.67;1.75;;;6.10;91.50;;;;;;5008059;28;20034;-76
2021/01/07 12:51:47;;;;;;;18.88;2.38;;;6.20;91.40;;;;;;5010625;28;20037;-77
2021/01/07 12:54:14;;;;;;;2.33;1.60;;;6.20;91.50;;;;;;5012280;28;20027;-72
2021/01/07 12:56:59;;;;;;;3.25;1.60;;;6.10;91.60;;;;;;5012732;28;20324;-73
2021/01/07 12:59:30;;;;;;;2.17;1.45;;;6.20;91.60;;;;;;5007982;28;20033;-73